sensor_id;sensor_type;location;lat;lon;timestamp;temperature;humidity
42135;DHT22;28312;43.460;11.810;2022-08-19T00:03:05;19.60;89.70
42135;DHT22;28312;43.460;11.810;2022-08-19T00:07:09;19.70;89.70
42135;DHT22;28312;43.460;11.810;2022-08-19T00:11:13;19.70;89.70
42135;DHT22;28312;43.460;11.810;2022-08-19T00:15:28;19.70;89.70
42135;DHT22;28312;43.460;11.810;2022-08-19T00:19:33;19.80;89.80
42135;DHT22;28312;43.460;11.810;2022-08-19T00:23:36;19.80;89.80
42135;DHT22;28312;43.460;11.810;2022-08-19T00:27:40;19.90;89.90
42135;DHT22;28312;43.460;11.810;2022-08-19T00:31:44;19.90;89.90
42135;DHT22;28312;43.460;11.810;2022-08-19T00:35:49;19.90;90.00
42135;DHT22;28312;43.460;11.810;2022-08-19T00:39:58;19.90;90.00
42135;DHT22;28312;43.460;11.810;2022-08-19T00:44:13;19.90;90.00
42135;DHT22;28312;43.460;11.810;2022-08-19T00:48:19;20.00;90.10
42135;DHT22;28312;43.460;11.810;2022-08-19T00:52:33;20.00;90.00
42135;DHT22;28312;43.460;11.810;2022-08-19T00:56:38;20.00;90.00
42135;DHT22;28312;43.460;11.810;2022-08-19T01:00:44;20.00;89.90
42135;DHT22;28312;43.460;11.810;2022-08-19T01:04:48;20.00;90.00
42135;DHT22;28312;43.460;11.810;2022-08-19T01:08:52;20.00;89.90
42135;DHT22;28312;43.460;11.810;2022-08-19T01:12:58;20.00;90.10
42135;DHT22;28312;43.460;11.810;2022-08-19T01:17:02;20.10;90.10
42135;DHT22;28312;43.460;11.810;2022-08-19T01:21:22;20.10;90.10
42135;DHT22;28312;43.460;11.810;2022-08-19T01:25:38;20.20;90.20
42135;DHT22;28312;43.460;11.810;2022-08-19T01:29:43;20.20;90.20
42135;DHT22;28312;43.460;11.810;2022-08-19T01:33:50;20.30;90.30
42135;DHT22;28312;43.460;11.810;2022-08-19T01:37:57;20.40;90.40
42135;DHT22;28312;43.460;11.810;2022-08-19T01:42:01;20.40;90.40
42135;DHT22;28312;43.460;11.810;2022-08-19T01:46:07;20.60;90.40
42135;DHT22;28312;43.460;11.810;2022-08-19T01:50:13;20.60;90.50
42135;DHT22;28312;43.460;11.810;2022-08-19T01:54:20;20.70;90.40
42135;DHT22;28312;43.460;11.810;2022-08-19T01:58:34;20.70;90.20
42135;DHT22;28312;43.460;11.810;2022-08-19T02:02:39;20.70;90.30
42135;DHT22;28312;43.460;11.810;2022-08-19T02:06:46;20.70;90.30
42135;DHT22;28312;43.460;11.810;2022-08-19T02:10:49;20.70;90.40
42135;DHT22;28312;43.460;11.810;2022-08-19T02:14:53;20.70;90.50
42135;DHT22;28312;43.460;11.810;2022-08-19T02:18:57;20.70;90.60
42135;DHT22;28312;43.460;11.810;2022-08-19T02:23:04;20.70;90.60
42135;DHT22;28312;43.460;11.810;2022-08-19T02:27:15;20.70;90.60
42135;DHT22;28312;43.460;11.810;2022-08-19T02:31:21;20.70;90.60
42135;DHT22;28312;43.460;11.810;2022-08-19T02:35:27;20.80;90.60
42135;DHT22;28312;43.460;11.810;2022-08-19T02:39:31;20.80;90.60
42135;DHT22;28312;43.460;11.810;2022-08-19T02:43:35;20.80;90.50
42135;DHT22;28312;43.460;11.810;2022-08-19T02:47:40;20.70;90.50
42135;DHT22;28312;43.460;11.810;2022-08-19T02:51:46;20.70;90.50
42135;DHT22;28312;43.460;11.810;2022-08-19T02:55:50;20.80;90.60
42135;DHT22;28312;43.460;11.810;2022-08-19T02:59:54;20.80;90.50
42135;DHT22;28312;43.460;11.810;2022-08-19T03:04:00;20.80;90.60
42135;DHT22;28312;43.460;11.810;2022-08-19T03:08:03;20.80;90.50
42135;DHT22;28312;43.460;11.810;2022-08-19T03:12:07;20.90;90.50
42135;DHT22;28312;43.460;11.810;2022-08-19T03:16:12;20.90;90.40
42135;DHT22;28312;43.460;11.810;2022-08-19T03:20:15;20.90;90.30
42135;DHT22;28312;43.460;11.810;2022-08-19T03:24:19;20.90;90.30
42135;DHT22;28312;43.460;11.810;2022-08-19T03:28:23;21.00;90.10
42135;DHT22;28312;43.460;11.810;2022-08-19T03:32:26;20.90;89.90
42135;DHT22;28312;43.460;11.810;2022-08-19T03:36:35;20.90;90.00
42135;DHT22;28312;43.460;11.810;2022-08-19T03:40:39;20.90;90.10
42135;DHT22;28312;43.460;11.810;2022-08-19T03:44:43;20.90;90.10
42135;DHT22;28312;43.460;11.810;2022-08-19T03:48:50;20.80;90.10
42135;DHT22;28312;43.460;11.810;2022-08-19T03:52:56;20.80;90.20
42135;DHT22;28312;43.460;11.810;2022-08-19T03:57:00;20.70;90.30
42135;DHT22;28312;43.460;11.810;2022-08-19T04:01:08;20.70;90.40
42135;DHT22;28312;43.460;11.810;2022-08-19T04:05:12;20.70;90.60
42135;DHT22;28312;43.460;11.810;2022-08-19T04:09:18;20.70;90.60
42135;DHT22;28312;43.460;11.810;2022-08-19T04:13:22;20.70;90.70
42135;DHT22;28312;43.460;11.810;2022-08-19T04:17:25;20.70;90.70
42135;DHT22;28312;43.460;11.810;2022-08-19T04:21:29;20.70;90.70
42135;DHT22;28312;43.460;11.810;2022-08-19T04:25:38;20.70;90.60
42135;DHT22;28312;43.460;11.810;2022-08-19T04:29:42;20.70;90.70
42135;DHT22;28312;43.460;11.810;2022-08-19T04:33:46;20.70;90.80
42135;DHT22;28312;43.460;11.810;2022-08-19T04:37:50;20.70;90.90
42135;DHT22;28312;43.460;11.810;2022-08-19T04:41:54;20.60;90.80
42135;DHT22;28312;43.460;11.810;2022-08-19T04:46:16;20.70;90.90
42135;DHT22;28312;43.460;11.810;2022-08-19T04:50:42;20.70;91.00
42135;DHT22;28312;43.460;11.810;2022-08-19T04:54:46;20.70;91.00
42135;DHT22;28312;43.460;11.810;2022-08-19T04:58:50;20.70;90.90
42135;DHT22;28312;43.460;11.810;2022-08-19T05:02:56;20.70;90.90
42135;DHT22;28312;43.460;11.810;2022-08-19T05:07:00;20.70;90.90
42135;DHT22;28312;43.460;11.810;2022-08-19T05:15:18;20.80;91.00
42135;DHT22;28312;43.460;11.810;2022-08-19T05:19:22;20.90;91.00
42135;DHT22;28312;43.460;11.810;2022-08-19T05:23:44;20.90;91.00
42135;DHT22;28312;43.460;11.810;2022-08-19T05:27:48;20.90;91.10
42135;DHT22;28312;43.460;11.810;2022-08-19T05:31:53;20.90;91.00
42135;DHT22;28312;43.460;11.810;2022-08-19T05:35:57;20.90;91.10
42135;DHT22;28312;43.460;11.810;2022-08-19T05:40:03;21.00;91.20
42135;DHT22;28312;43.460;11.810;2022-08-19T05:44:06;21.10;91.20
42135;DHT22;28312;43.460;11.810;2022-08-19T05:48:13;21.10;91.20
42135;DHT22;28312;43.460;11.810;2022-08-19T05:52:17;21.10;91.30
42135;DHT22;28312;43.460;11.810;2022-08-19T05:56:21;21.20;91.50
42135;DHT22;28312;43.460;11.810;2022-08-19T06:00:25;21.40;91.60
42135;DHT22;28312;43.460;11.810;2022-08-19T06:04:28;21.50;91.50
42135;DHT22;28312;43.460;11.810;2022-08-19T06:08:32;21.60;91.30
42135;DHT22;28312;43.460;11.810;2022-08-19T06:12:38;21.70;91.30
42135;DHT22;28312;43.460;11.810;2022-08-19T06:16:43;21.70;91.10
42135;DHT22;28312;43.460;11.810;2022-08-19T06:20:47;21.70;90.70
42135;DHT22;28312;43.460;11.810;2022-08-19T06:24:58;21.70;90.70
42135;DHT22;28312;43.460;11.810;2022-08-19T06:29:07;21.70;90.70
42135;DHT22;28312;43.460;11.810;2022-08-19T06:33:11;21.70;90.60
42135;DHT22;28312;43.460;11.810;2022-08-19T06:37:15;21.70;90.70
42135;DHT22;28312;43.460;11.810;2022-08-19T06:41:18;21.70;90.80
42135;DHT22;28312;43.460;11.810;2022-08-19T06:45:23;21.80;90.60
42135;DHT22;28312;43.460;11.810;2022-08-19T06:49:37;21.80;90.50
42135;DHT22;28312;43.460;11.810;2022-08-19T06:53:41;21.80;90.40
42135;DHT22;28312;43.460;11.810;2022-08-19T06:57:50;21.80;90.50
42135;DHT22;28312;43.460;11.810;2022-08-19T07:01:59;21.80;90.60
42135;DHT22;28312;43.460;11.810;2022-08-19T07:06:11;21.80;90.70
42135;DHT22;28312;43.460;11.810;2022-08-19T07:10:36;21.80;90.80
42135;DHT22;28312;43.460;11.810;2022-08-19T07:14:44;21.80;91.00
42135;DHT22;28312;43.460;11.810;2022-08-19T07:18:50;21.90;91.10
42135;DHT22;28312;43.460;11.810;2022-08-19T07:22:54;22.00;91.20
42135;DHT22;28312;43.460;11.810;2022-08-19T07:27:00;22.10;91.80
42135;DHT22;28312;43.460;11.810;2022-08-19T07:31:15;22.40;92.30
42135;DHT22;28312;43.460;11.810;2022-08-19T07:35:26;22.60;92.20
42135;DHT22;28312;43.460;11.810;2022-08-19T07:39:34;22.90;92.10
42135;DHT22;28312;43.460;11.810;2022-08-19T07:43:38;23.10;91.80
42135;DHT22;28312;43.460;11.810;2022-08-19T07:47:42;23.40;91.80
42135;DHT22;28312;43.460;11.810;2022-08-19T07:51:57;23.50;91.40
42135;DHT22;28312;43.460;11.810;2022-08-19T07:56:02;23.60;91.50
42135;DHT22;28312;43.460;11.810;2022-08-19T08:00:08;23.70;91.00
42135;DHT22;28312;43.460;11.810;2022-08-19T08:04:13;23.70;90.90
42135;DHT22;28312;43.460;11.810;2022-08-19T08:08:35;23.80;90.80
42135;DHT22;28312;43.460;11.810;2022-08-19T08:12:51;23.90;91.30
42135;DHT22;28312;43.460;11.810;2022-08-19T08:17:11;24.10;91.30
42135;DHT22;28312;43.460;11.810;2022-08-19T08:21:15;24.20;91.70
42135;DHT22;28312;43.460;11.810;2022-08-19T08:25:21;24.40;91.70
42135;DHT22;28312;43.460;11.810;2022-08-19T08:29:28;24.60;91.30
42135;DHT22;28312;43.460;11.810;2022-08-19T08:33:37;24.70;91.00
42135;DHT22;28312;43.460;11.810;2022-08-19T08:37:40;25.10;91.20
42135;DHT22;28312;43.460;11.810;2022-08-19T08:41:55;25.30;90.70
42135;DHT22;28312;43.460;11.810;2022-08-19T08:50:41;25.50;89.30
42135;DHT22;28312;43.460;11.810;2022-08-19T08:54:51;25.20;88.20
42135;DHT22;28312;43.460;11.810;2022-08-19T08:59:00;24.80;88.50
42135;DHT22;28312;43.460;11.810;2022-08-19T09:03:24;24.60;89.00
42135;DHT22;28312;43.460;11.810;2022-08-19T09:07:53;24.50;88.80
42135;DHT22;28312;43.460;11.810;2022-08-19T09:16:30;24.10;89.10
42135;DHT22;28312;43.460;11.810;2022-08-19T09:20:36;24.10;89.60
42135;DHT22;28312;43.460;11.810;2022-08-19T09:24:45;24.10;89.70
42135;DHT22;28312;43.460;11.810;2022-08-19T09:28:50;24.00;89.70
42135;DHT22;28312;43.460;11.810;2022-08-19T09:32:54;24.10;90.20
42135;DHT22;28312;43.460;11.810;2022-08-19T09:36:59;24.20;90.70
42135;DHT22;28312;43.460;11.810;2022-08-19T09:41:13;24.50;91.30
42135;DHT22;28312;43.460;11.810;2022-08-19T09:45:21;24.80;90.90
42135;DHT22;28312;43.460;11.810;2022-08-19T09:49:25;25.10;90.30
42135;DHT22;28312;43.460;11.810;2022-08-19T09:53:30;25.10;90.40
42135;DHT22;28312;43.460;11.810;2022-08-19T09:57:35;25.40;90.30
42135;DHT22;28312;43.460;11.810;2022-08-19T10:01:39;25.60;89.90
42135;DHT22;28312;43.460;11.810;2022-08-19T10:05:43;25.60;89.80
42135;DHT22;28312;43.460;11.810;2022-08-19T10:09:57;25.70;89.80
42135;DHT22;28312;43.460;11.810;2022-08-19T10:14:03;25.90;90.10
42135;DHT22;28312;43.460;11.810;2022-08-19T10:18:08;26.00;89.00
42135;DHT22;28312;43.460;11.810;2022-08-19T10:22:13;25.90;88.20
42135;DHT22;28312;43.460;11.810;2022-08-19T10:26:20;25.70;87.70
42135;DHT22;28312;43.460;11.810;2022-08-19T10:30:31;25.70;88.30
42135;DHT22;28312;43.460;11.810;2022-08-19T10:34:37;26.00;89.20
42135;DHT22;28312;43.460;11.810;2022-08-19T10:38:52;26.60;89.60
42135;DHT22;28312;43.460;11.810;2022-08-19T10:43:00;27.10;88.20
42135;DHT22;28312;43.460;11.810;2022-08-19T10:47:04;27.40;87.60
42135;DHT22;28312;43.460;11.810;2022-08-19T10:51:26;27.60;86.80
42135;DHT22;28312;43.460;11.810;2022-08-19T10:55:50;27.70;86.60
42135;DHT22;28312;43.460;11.810;2022-08-19T11:00:15;27.60;85.50
42135;DHT22;28312;43.460;11.810;2022-08-19T11:04:19;27.70;86.70
42135;DHT22;28312;43.460;11.810;2022-08-19T11:08:22;27.90;85.90
42135;DHT22;28312;43.460;11.810;2022-08-19T11:12:27;27.90;85.50
42135;DHT22;28312;43.460;11.810;2022-08-19T11:16:31;27.80;85.70
42135;DHT22;28312;43.460;11.810;2022-08-19T11:20:36;27.90;85.00
42135;DHT22;28312;43.460;11.810;2022-08-19T11:24:40;28.00;84.50
42135;DHT22;28312;43.460;11.810;2022-08-19T11:28:44;27.90;84.00
42135;DHT22;28312;43.460;11.810;2022-08-19T11:32:47;27.80;82.80
42135;DHT22;28312;43.460;11.810;2022-08-19T11:36:53;27.60;82.40
42135;DHT22;28312;43.460;11.810;2022-08-19T11:41:01;27.50;82.10
42135;DHT22;28312;43.460;11.810;2022-08-19T11:45:06;27.20;82.00
42135;DHT22;28312;43.460;11.810;2022-08-19T11:49:11;27.10;81.70
42135;DHT22;28312;43.460;11.810;2022-08-19T11:53:18;27.00;81.50
42135;DHT22;28312;43.460;11.810;2022-08-19T11:57:23;26.70;81.00
42135;DHT22;28312;43.460;11.810;2022-08-19T12:01:27;26.50;80.90
42135;DHT22;28312;43.460;11.810;2022-08-19T12:05:30;26.20;80.60
42135;DHT22;28312;43.460;11.810;2022-08-19T12:09:36;25.90;80.90
42135;DHT22;28312;43.460;11.810;2022-08-19T12:13:45;25.70;81.00
42135;DHT22;28312;43.460;11.810;2022-08-19T12:17:49;25.40;80.80
42135;DHT22;28312;43.460;11.810;2022-08-19T12:21:59;25.30;81.20
42135;DHT22;28312;43.460;11.810;2022-08-19T12:26:05;25.30;81.50
42135;DHT22;28312;43.460;11.810;2022-08-19T12:30:12;25.20;81.40
42135;DHT22;28312;43.460;11.810;2022-08-19T12:34:16;25.10;81.10
42135;DHT22;28312;43.460;11.810;2022-08-19T12:38:20;25.10;80.80
42135;DHT22;28312;43.460;11.810;2022-08-19T12:42:27;25.10;80.90
42135;DHT22;28312;43.460;11.810;2022-08-19T12:46:30;25.00;81.40
42135;DHT22;28312;43.460;11.810;2022-08-19T12:50:35;25.20;82.70
42135;DHT22;28312;43.460;11.810;2022-08-19T12:54:42;25.80;83.00
42135;DHT22;28312;43.460;11.810;2022-08-19T12:58:49;26.20;81.20
42135;DHT22;28312;43.460;11.810;2022-08-19T13:02:55;26.40;79.40
42135;DHT22;28312;43.460;11.810;2022-08-19T13:06:59;26.20;78.00
42135;DHT22;28312;43.460;11.810;2022-08-19T13:11:12;26.00;77.10
42135;DHT22;28312;43.460;11.810;2022-08-19T13:15:17;25.80;77.20
42135;DHT22;28312;43.460;11.810;2022-08-19T13:19:26;25.70;76.80
42135;DHT22;28312;43.460;11.810;2022-08-19T13:23:30;25.60;77.00
42135;DHT22;28312;43.460;11.810;2022-08-19T13:27:35;25.40;77.00
42135;DHT22;28312;43.460;11.810;2022-08-19T13:31:41;25.10;76.90
42135;DHT22;28312;43.460;11.810;2022-08-19T13:36:05;25.00;77.40
42135;DHT22;28312;43.460;11.810;2022-08-19T13:40:17;24.90;77.70
42135;DHT22;28312;43.460;11.810;2022-08-19T13:44:23;24.80;77.50
42135;DHT22;28312;43.460;11.810;2022-08-19T13:48:26;24.70;77.40
42135;DHT22;28312;43.460;11.810;2022-08-19T13:52:30;24.70;77.70
42135;DHT22;28312;43.460;11.810;2022-08-19T13:56:35;24.80;77.50
42135;DHT22;28312;43.460;11.810;2022-08-19T14:00:44;24.80;77.40
42135;DHT22;28312;43.460;11.810;2022-08-19T14:04:48;24.80;77.60
42135;DHT22;28312;43.460;11.810;2022-08-19T14:08:51;25.00;77.80
42135;DHT22;28312;43.460;11.810;2022-08-19T14:12:57;25.10;77.80
42135;DHT22;28312;43.460;11.810;2022-08-19T14:17:05;25.50;77.60
42135;DHT22;28312;43.460;11.810;2022-08-19T14:21:15;25.70;77.80
42135;DHT22;28312;43.460;11.810;2022-08-19T14:25:22;26.00;77.50
42135;DHT22;28312;43.460;11.810;2022-08-19T14:29:26;26.20;76.90
42135;DHT22;28312;43.460;11.810;2022-08-19T14:33:32;26.40;76.30
42135;DHT22;28312;43.460;11.810;2022-08-19T14:37:36;26.50;75.60
42135;DHT22;28312;43.460;11.810;2022-08-19T14:41:47;26.50;75.40
42135;DHT22;28312;43.460;11.810;2022-08-19T14:45:51;26.40;75.40
42135;DHT22;28312;43.460;11.810;2022-08-19T14:49:55;26.50;75.10
42135;DHT22;28312;43.460;11.810;2022-08-19T14:53:58;26.50;75.40
42135;DHT22;28312;43.460;11.810;2022-08-19T14:58:02;26.80;75.80
42135;DHT22;28312;43.460;11.810;2022-08-19T15:02:10;27.10;75.20
42135;DHT22;28312;43.460;11.810;2022-08-19T15:06:34;27.40;74.70
42135;DHT22;28312;43.460;11.810;2022-08-19T15:10:38;27.60;74.40
42135;DHT22;28312;43.460;11.810;2022-08-19T15:14:43;27.70;73.80
42135;DHT22;28312;43.460;11.810;2022-08-19T15:18:51;27.80;72.60
42135;DHT22;28312;43.460;11.810;2022-08-19T15:22:57;27.70;72.80
42135;DHT22;28312;43.460;11.810;2022-08-19T15:27:02;27.70;73.20
42135;DHT22;28312;43.460;11.810;2022-08-19T15:31:07;27.80;72.90
42135;DHT22;28312;43.460;11.810;2022-08-19T15:35:28;27.70;72.50
42135;DHT22;28312;43.460;11.810;2022-08-19T15:39:32;27.60;72.20
42135;DHT22;28312;43.460;11.810;2022-08-19T15:43:41;27.50;72.10
42135;DHT22;28312;43.460;11.810;2022-08-19T15:47:44;27.40;71.40
42135;DHT22;28312;43.460;11.810;2022-08-19T15:51:49;27.10;70.90
42135;DHT22;28312;43.460;11.810;2022-08-19T15:55:54;26.80;70.70
42135;DHT22;28312;43.460;11.810;2022-08-19T15:59:57;26.60;71.10
42135;DHT22;28312;43.460;11.810;2022-08-19T16:04:19;26.30;71.10
42135;DHT22;28312;43.460;11.810;2022-08-19T16:08:41;26.20;70.90
42135;DHT22;28312;43.460;11.810;2022-08-19T16:12:51;26.20;70.80
42135;DHT22;28312;43.460;11.810;2022-08-19T16:16:54;26.10;70.50
42135;DHT22;28312;43.460;11.810;2022-08-19T16:20:59;26.10;70.60
42135;DHT22;28312;43.460;11.810;2022-08-19T16:25:04;26.10;70.20
42135;DHT22;28312;43.460;11.810;2022-08-19T16:29:10;26.20;70.10
42135;DHT22;28312;43.460;11.810;2022-08-19T16:33:15;26.30;69.70
42135;DHT22;28312;43.460;11.810;2022-08-19T16:37:25;26.20;69.80
42135;DHT22;28312;43.460;11.810;2022-08-19T16:41:28;26.20;69.60
42135;DHT22;28312;43.460;11.810;2022-08-19T16:45:32;26.10;69.50
42135;DHT22;28312;43.460;11.810;2022-08-19T16:49:37;26.00;69.00
42135;DHT22;28312;43.460;11.810;2022-08-19T16:53:56;25.80;68.80
42135;DHT22;28312;43.460;11.810;2022-08-19T16:58:00;25.60;68.80
42135;DHT22;28312;43.460;11.810;2022-08-19T17:02:06;25.30;68.90
42135;DHT22;28312;43.460;11.810;2022-08-19T17:06:18;25.10;69.10
42135;DHT22;28312;43.460;11.810;2022-08-19T17:10:23;25.00;69.30
42135;DHT22;28312;43.460;11.810;2022-08-19T17:14:26;24.90;69.40
42135;DHT22;28312;43.460;11.810;2022-08-19T17:18:30;24.70;69.50
42135;DHT22;28312;43.460;11.810;2022-08-19T17:22:34;24.60;69.60
42135;DHT22;28312;43.460;11.810;2022-08-19T17:26:39;24.60;69.60
42135;DHT22;28312;43.460;11.810;2022-08-19T17:30:43;24.60;69.70
42135;DHT22;28312;43.460;11.810;2022-08-19T17:34:47;24.50;69.70
42135;DHT22;28312;43.460;11.810;2022-08-19T17:38:53;24.40;69.60
42135;DHT22;28312;43.460;11.810;2022-08-19T17:42:57;24.30;69.60
42135;DHT22;28312;43.460;11.810;2022-08-19T17:47:01;24.20;69.70
42135;DHT22;28312;43.460;11.810;2022-08-19T17:55:39;24.00;69.80
42135;DHT22;28312;43.460;11.810;2022-08-19T17:59:43;23.90;69.80
42135;DHT22;28312;43.460;11.810;2022-08-19T18:03:49;23.80;69.90
42135;DHT22;28312;43.460;11.810;2022-08-19T18:07:53;23.70;70.00
42135;DHT22;28312;43.460;11.810;2022-08-19T18:11:57;23.70;70.10
42135;DHT22;28312;43.460;11.810;2022-08-19T18:16:02;23.60;70.40
42135;DHT22;28312;43.460;11.810;2022-08-19T18:20:08;23.60;70.70
42135;DHT22;28312;43.460;11.810;2022-08-19T18:24:14;23.50;70.70
42135;DHT22;28312;43.460;11.810;2022-08-19T18:28:17;23.50;70.70
42135;DHT22;28312;43.460;11.810;2022-08-19T18:32:21;23.40;70.70
42135;DHT22;28312;43.460;11.810;2022-08-19T18:36:27;23.40;70.80
42135;DHT22;28312;43.460;11.810;2022-08-19T18:40:55;23.30;70.90
42135;DHT22;28312;43.460;11.810;2022-08-19T18:45:16;23.20;71.00
42135;DHT22;28312;43.460;11.810;2022-08-19T18:49:40;23.10;71.10
42135;DHT22;28312;43.460;11.810;2022-08-19T18:53:45;23.10;71.10
42135;DHT22;28312;43.460;11.810;2022-08-19T18:57:49;23.00;71.20
42135;DHT22;28312;43.460;11.810;2022-08-19T19:01:56;22.90;71.20
42135;DHT22;28312;43.460;11.810;2022-08-19T19:06:00;22.90;71.30
42135;DHT22;28312;43.460;11.810;2022-08-19T19:10:06;22.80;71.30
42135;DHT22;28312;43.460;11.810;2022-08-19T19:14:15;22.70;71.30
42135;DHT22;28312;43.460;11.810;2022-08-19T19:18:39;22.70;71.50
42135;DHT22;28312;43.460;11.810;2022-08-19T19:22:42;22.60;71.80
42135;DHT22;28312;43.460;11.810;2022-08-19T19:26:47;22.60;72.00
42135;DHT22;28312;43.460;11.810;2022-08-19T19:30:52;22.60;72.00
42135;DHT22;28312;43.460;11.810;2022-08-19T19:34:57;22.60;72.10
42135;DHT22;28312;43.460;11.810;2022-08-19T19:39:06;22.60;72.20
42135;DHT22;28312;43.460;11.810;2022-08-19T19:43:09;22.50;72.20
42135;DHT22;28312;43.460;11.810;2022-08-19T19:47:13;22.50;72.30
42135;DHT22;28312;43.460;11.810;2022-08-19T19:51:18;22.40;72.50
42135;DHT22;28312;43.460;11.810;2022-08-19T19:55:25;22.40;72.60
42135;DHT22;28312;43.460;11.810;2022-08-19T19:59:31;22.40;72.70
42135;DHT22;28312;43.460;11.810;2022-08-19T20:03:35;22.30;72.80
42135;DHT22;28312;43.460;11.810;2022-08-19T20:07:39;22.30;72.90
42135;DHT22;28312;43.460;11.810;2022-08-19T20:12:02;22.30;73.00
42135;DHT22;28312;43.460;11.810;2022-08-19T20:16:06;22.20;73.10
42135;DHT22;28312;43.460;11.810;2022-08-19T20:20:13;22.20;73.10
42135;DHT22;28312;43.460;11.810;2022-08-19T20:24:19;22.20;73.20
42135;DHT22;28312;43.460;11.810;2022-08-19T20:28:23;22.20;73.10
42135;DHT22;28312;43.460;11.810;2022-08-19T20:32:27;22.20;73.20
42135;DHT22;28312;43.460;11.810;2022-08-19T20:36:31;22.20;73.20
42135;DHT22;28312;43.460;11.810;2022-08-19T20:40:35;22.10;73.40
42135;DHT22;28312;43.460;11.810;2022-08-19T20:44:40;22.10;73.50
42135;DHT22;28312;43.460;11.810;2022-08-19T20:48:43;22.10;73.50
42135;DHT22;28312;43.460;11.810;2022-08-19T20:52:47;22.10;73.60
42135;DHT22;28312;43.460;11.810;2022-08-19T20:56:55;22.10;73.60
42135;DHT22;28312;43.460;11.810;2022-08-19T21:01:00;22.10;73.70
42135;DHT22;28312;43.460;11.810;2022-08-19T21:05:05;22.10;73.70
42135;DHT22;28312;43.460;11.810;2022-08-19T21:09:09;22.10;73.60
42135;DHT22;28312;43.460;11.810;2022-08-19T21:13:13;22.10;73.70
42135;DHT22;28312;43.460;11.810;2022-08-19T21:17:17;22.00;73.80
42135;DHT22;28312;43.460;11.810;2022-08-19T21:21:21;22.00;73.90
42135;DHT22;28312;43.460;11.810;2022-08-19T21:25:24;22.10;73.90
42135;DHT22;28312;43.460;11.810;2022-08-19T21:29:28;22.10;73.90
42135;DHT22;28312;43.460;11.810;2022-08-19T21:33:34;22.10;73.90
42135;DHT22;28312;43.460;11.810;2022-08-19T21:37:37;22.10;73.90
42135;DHT22;28312;43.460;11.810;2022-08-19T21:41:41;22.10;74.00
42135;DHT22;28312;43.460;11.810;2022-08-19T21:45:51;22.00;74.00
42135;DHT22;28312;43.460;11.810;2022-08-19T21:49:55;22.10;74.10
42135;DHT22;28312;43.460;11.810;2022-08-19T21:53:58;21.90;74.20
42135;DHT22;28312;43.460;11.810;2022-08-19T21:58:03;21.90;74.40
42135;DHT22;28312;43.460;11.810;2022-08-19T22:02:07;21.80;74.60
42135;DHT22;28312;43.460;11.810;2022-08-19T22:06:22;21.80;74.80
42135;DHT22;28312;43.460;11.810;2022-08-19T22:10:30;21.70;74.70
42135;DHT22;28312;43.460;11.810;2022-08-19T22:14:38;21.80;74.70
42135;DHT22;28312;43.460;11.810;2022-08-19T22:18:41;21.80;74.70
42135;DHT22;28312;43.460;11.810;2022-08-19T22:22:57;21.80;74.60
42135;DHT22;28312;43.460;11.810;2022-08-19T22:27:01;21.80;74.70
42135;DHT22;28312;43.460;11.810;2022-08-19T22:31:10;21.70;74.80
42135;DHT22;28312;43.460;11.810;2022-08-19T22:35:17;21.70;74.70
42135;DHT22;28312;43.460;11.810;2022-08-19T22:39:21;21.70;74.80
42135;DHT22;28312;43.460;11.810;2022-08-19T22:43:28;21.70;74.80
42135;DHT22;28312;43.460;11.810;2022-08-19T22:47:37;21.70;75.00
42135;DHT22;28312;43.460;11.810;2022-08-19T22:51:41;21.60;74.90
42135;DHT22;28312;43.460;11.810;2022-08-19T22:56:04;21.60;74.90
42135;DHT22;28312;43.460;11.810;2022-08-19T23:00:10;21.60;75.00
42135;DHT22;28312;43.460;11.810;2022-08-19T23:04:15;21.60;75.10
42135;DHT22;28312;43.460;11.810;2022-08-19T23:08:19;21.60;75.20
42135;DHT22;28312;43.460;11.810;2022-08-19T23:12:31;21.60;75.30
42135;DHT22;28312;43.460;11.810;2022-08-19T23:16:36;21.60;75.40
42135;DHT22;28312;43.460;11.810;2022-08-19T23:20:41;21.60;75.30
42135;DHT22;28312;43.460;11.810;2022-08-19T23:24:46;21.50;75.50
42135;DHT22;28312;43.460;11.810;2022-08-19T23:28:57;21.50;75.60
42135;DHT22;28312;43.460;11.810;2022-08-19T23:33:28;21.50;75.60
42135;DHT22;28312;43.460;11.810;2022-08-19T23:37:52;21.50;75.60
42135;DHT22;28312;43.460;11.810;2022-08-19T23:41:56;21.50;75.50
42135;DHT22;28312;43.460;11.810;2022-08-19T23:46:02;21.50;75.40
42135;DHT22;28312;43.460;11.810;2022-08-19T23:50:13;21.50;75.40
42135;DHT22;28312;43.460;11.810;2022-08-19T23:54:17;21.50;75.40
42135;DHT22;28312;43.460;11.810;2022-08-19T23:58:21;21.40;75.50
